Whitefield, New Hampshire
Current Conditions -  °F | °C
As of 9:52 AM on Thursday 23 Oct 2014 (Local Time) from KHIE Reporting Station
Light Rain Light Rain  
Wind Chill: 44°   Ceiling: 3100
Heat Index: 48°   Visibility: 10mi
Dew Point: 44°   Wind: 9mph
Humidity: 86%   Direction: 70°ENE
Pressure: 29.88"   Gusts: NA
Location:  44.37°N, 71.62°W
Report Text: KHIE 231352Z AUTO 07008KT 10SM -RA SCT025 BKN031 OVC070 09/07 A2988 RMK AO2 RAB1254 SLP123 P0001 T00890067
Loading
Personal Weather Stations






























Interactive Weather Map
Tropical Storm Tracking
New forecast layout! Learn more

10-Day Weather Forecast

Advertisements
Track Severe Weather on mobile